Terminal Aerodrome Forecast
Issued by NWS

Home | Current Version | Previous Version | Text Only | Print | Product List | Glossary On
Versions: 1 2 3 4 5 6 7 8 9 10 11 12 13 14
000
FTAK31 PAFA 022326 AAA
TAFAMC
TAF AMD
PAMC 022326Z 0223/0324 33005KT P6SM VCSH SCT050 BKN070 BKN150
      TEMPO 0300/0304 VRB05KT P6SM -TSRA BKN050CB BKN100 BKN200
     FM030400 VRB05KT P6SM -SHRA BKN050 BKN100 BKN200=

USA.gov is the U.S. government's official web portal to all federal, state and local government web resources and services.